createdAt,value
2022-12-09T00:00:05.259Z,3.78
2022-12-09T00:00:14.787Z,3.70
2022-12-09T00:00:25.147Z,3.75
2022-12-09T00:00:34.643Z,3.65
2022-12-09T00:00:44.675Z,3.83
2022-12-09T00:00:54.676Z,3.86
2022-12-09T00:01:05.044Z,3.92
2022-12-09T00:01:14.860Z,3.75
2022-12-09T00:01:24.847Z,3.72
2022-12-09T00:01:34.769Z,3.71
2022-12-09T00:01:44.634Z,3.90
2022-12-09T00:01:57.274Z,3.94
2022-12-09T00:02:04.843Z,3.83
2022-12-09T00:02:15.014Z,3.83
2022-12-09T00:02:25.001Z,3.83
2022-12-09T00:02:34.926Z,3.75
2022-12-09T00:02:44.888Z,3.79
2022-12-09T00:02:54.843Z,3.64
2022-12-09T00:03:04.927Z,3.96
2022-12-09T00:03:17.776Z,3.86
2022-12-09T00:03:24.823Z,3.80
2022-12-09T00:03:35.384Z,3.88
2022-12-09T00:03:44.875Z,3.75
2022-12-09T00:03:54.768Z,3.82
2022-12-09T00:04:04.760Z,3.88
2022-12-09T00:04:14.978Z,3.88
2022-12-09T00:04:24.952Z,3.92
2022-12-09T00:04:34.901Z,3.75
2022-12-09T00:04:44.942Z,3.76
2022-12-09T00:04:54.726Z,3.90
2022-12-09T00:05:05.502Z,3.86
2022-12-09T00:05:14.795Z,3.96
2022-12-09T00:05:24.700Z,3.80
2022-12-09T00:05:34.670Z,3.82
2022-12-09T00:05:44.624Z,3.90
2022-12-09T00:05:54.615Z,3.71
2022-12-09T00:06:04.748Z,3.89
2022-12-09T00:06:14.643Z,3.98
2022-12-09T00:06:24.741Z,3.76
2022-12-09T00:06:34.614Z,3.83
2022-12-09T00:06:45.186Z,3.79
2022-12-09T00:06:54.795Z,3.88
2022-12-09T00:07:04.619Z,3.90
2022-12-09T00:07:14.694Z,3.75
2022-12-09T00:07:24.849Z,3.79
2022-12-09T00:07:34.636Z,3.83
2022-12-09T00:07:44.834Z,3.88
2022-12-09T00:07:54.749Z,3.89
2022-12-09T00:08:04.723Z,3.75
2022-12-09T00:08:14.914Z,3.82
2022-12-09T00:08:24.721Z,3.83
2022-12-09T00:08:34.772Z,3.68
2022-12-09T00:08:44.676Z,3.98
2022-12-09T00:08:54.795Z,3.76
2022-12-09T00:09:04.755Z,3.79
2022-12-09T00:09:14.768Z,3.92
2022-12-09T00:09:24.650Z,3.86
2022-12-09T00:09:34.710Z,3.79
2022-12-09T00:09:44.673Z,3.83
2022-12-09T00:09:54.840Z,3.79
2022-12-09T00:10:05.031Z,3.86
2022-12-09T00:10:14.684Z,3.83
2022-12-09T00:10:24.850Z,3.96
2022-12-09T00:10:34.731Z,3.89
2022-12-09T00:10:44.601Z,3.83
2022-12-09T00:10:55.150Z,3.85
2022-12-09T00:11:04.748Z,3.85
2022-12-09T00:11:14.711Z,3.88
2022-12-09T00:11:24.767Z,3.86
2022-12-09T00:11:34.604Z,3.97
2022-12-09T00:11:44.598Z,3.89
2022-12-09T00:11:54.743Z,4.04
2022-12-09T00:12:04.840Z,3.90
2022-12-09T00:12:15.166Z,3.90
2022-12-09T00:12:24.711Z,3.86
2022-12-09T00:12:34.624Z,3.97
2022-12-09T00:12:44.620Z,4.00
2022-12-09T00:12:54.590Z,3.92
2022-12-09T00:13:04.583Z,3.85
2022-12-09T00:13:14.861Z,3.98
2022-12-09T00:13:24.667Z,3.94
2022-12-09T00:13:34.585Z,3.86
2022-12-09T00:13:45.361Z,3.75
2022-12-09T00:13:54.774Z,4.06
2022-12-09T00:14:04.724Z,3.89
2022-12-09T00:14:14.814Z,3.86
2022-12-09T00:14:24.581Z,3.82
2022-12-09T00:14:34.616Z,4.03
2022-12-09T00:14:44.718Z,3.90
2022-12-09T00:14:54.578Z,3.94
2022-12-09T00:15:04.599Z,3.86
2022-12-09T00:15:14.708Z,3.78
2022-12-09T00:15:24.888Z,4.00
2022-12-09T00:15:34.685Z,3.83
2022-12-09T00:15:45.204Z,3.89
2022-12-09T00:15:55.362Z,3.79
2022-12-09T00:16:04.749Z,3.76
2022-12-09T00:16:14.818Z,3.67
2022-12-09T00:16:24.752Z,3.86
2022-12-09T00:16:35.408Z,3.90
2022-12-09T00:16:44.862Z,3.83
2022-12-09T00:16:54.872Z,3.72
2022-12-09T00:17:04.775Z,3.90
2022-12-09T00:17:14.890Z,3.85
2022-12-09T00:17:25.534Z,3.67
2022-12-09T00:17:34.876Z,3.76
2022-12-09T00:17:44.710Z,4.07
2022-12-09T00:17:54.787Z,3.83
2022-12-09T00:18:04.570Z,3.94
2022-12-09T00:18:14.880Z,3.96
2022-12-09T00:18:24.741Z,3.80
2022-12-09T00:18:34.842Z,3.80
2022-12-09T00:18:44.560Z,3.86
2022-12-09T00:18:54.799Z,4.01
2022-12-09T00:19:04.784Z,3.96
2022-12-09T00:19:15.188Z,3.94
2022-12-09T00:19:24.681Z,3.82
2022-12-09T00:19:34.826Z,3.88
2022-12-09T00:19:44.560Z,3.83
2022-12-09T00:19:54.761Z,3.92
2022-12-09T00:20:04.905Z,3.80
2022-12-09T00:20:14.636Z,3.75
2022-12-09T00:20:24.587Z,3.89
2022-12-09T00:20:34.803Z,3.89
2022-12-09T00:20:45.355Z,3.82
2022-12-09T00:20:54.572Z,3.89
2022-12-09T00:21:04.565Z,3.86
2022-12-09T00:21:14.614Z,3.75
2022-12-09T00:21:24.663Z,3.76
2022-12-09T00:21:34.770Z,3.83
2022-12-09T00:21:44.582Z,3.76
2022-12-09T00:21:54.558Z,3.79
2022-12-09T00:22:04.552Z,3.85
2022-12-09T00:22:14.852Z,3.76
2022-12-09T00:22:24.657Z,3.67
2022-12-09T00:22:34.678Z,3.82
2022-12-09T00:22:44.566Z,3.79
2022-12-09T00:22:54.783Z,3.83
2022-12-09T00:23:04.551Z,3.97
2022-12-09T00:23:14.582Z,3.72
2022-12-09T00:23:24.739Z,3.90
2022-12-09T00:23:34.909Z,3.89
2022-12-09T00:23:44.559Z,3.85
2022-12-09T00:23:54.817Z,3.82
2022-12-09T00:24:04.543Z,3.88
2022-12-09T00:24:14.855Z,4.12
2022-12-09T00:24:24.532Z,3.90
2022-12-09T00:24:34.560Z,3.89
2022-12-09T00:24:44.662Z,3.92
2022-12-09T00:24:54.799Z,3.76
2022-12-09T00:25:04.552Z,3.85
2022-12-09T00:25:14.756Z,3.83
2022-12-09T00:25:24.568Z,3.75
2022-12-09T00:25:35.275Z,3.79
2022-12-09T00:25:44.598Z,3.80
2022-12-09T00:25:54.573Z,3.79
2022-12-09T00:26:04.664Z,3.71
2022-12-09T00:26:14.525Z,3.79
2022-12-09T00:26:24.627Z,3.83
2022-12-09T00:26:34.554Z,3.90
2022-12-09T00:26:44.707Z,3.97
2022-12-09T00:26:54.537Z,3.72
2022-12-09T00:27:04.729Z,3.71
2022-12-09T00:27:14.524Z,3.94
2022-12-09T00:27:24.546Z,3.83
2022-12-09T00:27:35.210Z,3.92
2022-12-09T00:27:45.325Z,3.96
2022-12-09T00:27:54.691Z,3.79
2022-12-09T00:28:04.624Z,3.89
2022-12-09T00:28:14.524Z,3.82
2022-12-09T00:28:24.548Z,3.86
2022-12-09T00:28:34.764Z,3.86
2022-12-09T00:28:44.524Z,3.75
2022-12-09T00:28:54.530Z,4.06
2022-12-09T00:29:04.744Z,3.89
2022-12-09T00:29:14.783Z,3.90
2022-12-09T00:29:25.215Z,3.80
2022-12-09T00:29:34.514Z,3.62
2022-12-09T00:29:44.625Z,3.98
2022-12-09T00:29:54.515Z,3.90
2022-12-09T00:30:04.997Z,3.78
2022-12-09T00:30:15.444Z,3.79
2022-12-09T00:30:24.534Z,3.90
2022-12-09T00:30:34.658Z,3.79
2022-12-09T00:30:44.626Z,4.01
2022-12-09T00:30:54.751Z,3.89
2022-12-09T00:31:04.855Z,3.82
2022-12-09T00:31:14.996Z,3.83
2022-12-09T00:31:24.768Z,3.98
2022-12-09T00:31:34.843Z,3.83
2022-12-09T00:31:44.595Z,3.76
2022-12-09T00:31:55.336Z,4.00
2022-12-09T00:32:04.885Z,3.94
2022-12-09T00:32:14.606Z,3.90
2022-12-09T00:32:24.805Z,3.76
2022-12-09T00:32:34.709Z,3.76
2022-12-09T00:32:44.608Z,3.83
2022-12-09T00:32:54.818Z,3.79
2022-12-09T00:33:04.748Z,3.83
2022-12-09T00:33:14.538Z,3.76
2022-12-09T00:33:24.500Z,3.82
2022-12-09T00:33:34.624Z,3.90
2022-12-09T00:33:44.553Z,3.86
2022-12-09T00:33:54.516Z,3.82
2022-12-09T00:34:04.532Z,3.80
2022-12-09T00:34:14.653Z,3.89
2022-12-09T00:34:24.761Z,3.86
2022-12-09T00:34:34.512Z,3.98
2022-12-09T00:34:45.226Z,3.86
2022-12-09T00:34:54.579Z,4.15
2022-12-09T00:35:04.814Z,3.86
2022-12-09T00:35:14.546Z,3.97
2022-12-09T00:35:24.503Z,3.78
2022-12-09T00:35:34.507Z,3.98
2022-12-09T00:35:44.552Z,3.86
2022-12-09T00:35:55.163Z,4.06
2022-12-09T00:36:04.818Z,3.86
2022-12-09T00:36:14.603Z,3.90
2022-12-09T00:36:25.238Z,4.06
2022-12-09T00:36:34.624Z,4.12
2022-12-09T00:36:44.599Z,3.82
2022-12-09T00:36:54.630Z,3.92
2022-12-09T00:37:04.502Z,3.94
2022-12-09T00:37:14.560Z,3.97
2022-12-09T00:37:24.765Z,3.88
2022-12-09T00:37:34.561Z,3.82
2022-12-09T00:37:44.479Z,3.82
2022-12-09T00:37:54.502Z,3.90
2022-12-09T00:38:04.487Z,4.03
2022-12-09T00:38:14.515Z,4.01
2022-12-09T00:38:24.546Z,3.92
2022-12-09T00:38:34.554Z,3.86
2022-12-09T00:38:44.581Z,3.79
2022-12-09T00:38:55.156Z,3.75
2022-12-09T00:39:04.518Z,3.80
2022-12-09T00:39:14.512Z,3.85
2022-12-09T00:39:24.525Z,3.89
2022-12-09T00:39:34.654Z,3.90
2022-12-09T00:39:44.512Z,3.97
2022-12-09T00:39:54.482Z,4.03
2022-12-09T00:40:04.781Z,3.80
2022-12-09T00:40:14.486Z,3.92
2022-12-09T00:40:24.483Z,3.82
2022-12-09T00:40:34.695Z,3.90
2022-12-09T00:40:44.483Z,3.85
2022-12-09T00:40:54.656Z,3.88
2022-12-09T00:41:04.528Z,3.89
2022-12-09T00:41:14.729Z,3.90
2022-12-09T00:41:24.532Z,4.06
2022-12-09T00:41:34.604Z,3.96
2022-12-09T00:41:45.265Z,3.97
2022-12-09T00:41:54.546Z,3.90
2022-12-09T00:42:04.500Z,4.03
2022-12-09T00:42:14.528Z,3.97
2022-12-09T00:42:24.486Z,3.88
2022-12-09T00:42:34.464Z,3.86
2022-12-09T00:42:45.276Z,4.04
2022-12-09T00:42:54.651Z,3.97
2022-12-09T00:43:04.659Z,3.89
2022-12-09T00:43:14.464Z,3.86
2022-12-09T00:43:24.525Z,3.98
2022-12-09T00:43:34.469Z,3.83
2022-12-09T00:43:44.757Z,3.89
2022-12-09T00:43:54.488Z,3.96
2022-12-09T00:44:04.710Z,4.00
2022-12-09T00:44:14.447Z,3.97
2022-12-09T00:44:24.567Z,3.94
2022-12-09T00:44:34.589Z,3.86
2022-12-09T00:44:44.644Z,4.03
2022-12-09T00:44:54.600Z,4.00
2022-12-09T00:45:04.569Z,3.94
2022-12-09T00:45:14.474Z,3.94
2022-12-09T00:45:24.615Z,3.94
2022-12-09T00:45:34.464Z,3.88
2022-12-09T00:45:44.443Z,3.97
2022-12-09T00:45:55.304Z,4.01
2022-12-09T00:46:04.756Z,3.92
2022-12-09T00:46:14.568Z,3.92
2022-12-09T00:46:24.611Z,3.85
2022-12-09T00:46:34.674Z,4.01
2022-12-09T00:46:44.657Z,3.71
2022-12-09T00:46:54.488Z,3.88
2022-12-09T00:47:04.563Z,3.92
2022-12-09T00:47:14.666Z,4.07
2022-12-09T00:47:24.575Z,3.97
2022-12-09T00:47:34.563Z,3.76
2022-12-09T00:47:44.489Z,4.01
2022-12-09T00:47:54.705Z,3.97
2022-12-09T00:48:04.509Z,3.86
2022-12-09T00:48:15.264Z,3.71
2022-12-09T00:48:24.456Z,3.79
2022-12-09T00:48:34.823Z,3.65
2022-12-09T00:48:44.583Z,3.78
2022-12-09T00:48:54.489Z,3.94
2022-12-09T00:49:04.550Z,3.82
2022-12-09T00:49:14.435Z,3.72
2022-12-09T00:49:24.437Z,3.75
2022-12-09T00:49:34.668Z,3.88
2022-12-09T00:49:44.442Z,3.80
2022-12-09T00:49:54.654Z,3.96
2022-12-09T00:50:05.115Z,3.71
2022-12-09T00:50:14.543Z,3.76
2022-12-09T00:50:24.425Z,3.82
2022-12-09T00:50:35.309Z,3.65
2022-12-09T00:50:44.780Z,3.80
2022-12-09T00:50:54.450Z,3.76
2022-12-09T00:51:04.781Z,3.94
2022-12-09T00:51:14.496Z,3.75
2022-12-09T00:51:24.711Z,3.82
2022-12-09T00:51:34.726Z,3.88
2022-12-09T00:51:44.610Z,3.85
2022-12-09T00:51:54.634Z,3.94
2022-12-09T00:52:04.429Z,3.89
2022-12-09T00:52:14.545Z,3.82
2022-12-09T00:52:24.439Z,3.80
2022-12-09T00:52:34.603Z,3.75
2022-12-09T00:52:44.506Z,3.86
2022-12-09T00:52:55.169Z,3.71
2022-12-09T00:53:04.476Z,3.80
2022-12-09T00:53:14.586Z,3.83
2022-12-09T00:53:24.482Z,3.96
2022-12-09T00:53:34.645Z,3.88
2022-12-09T00:53:44.479Z,3.83
2022-12-09T00:53:55.064Z,3.82
2022-12-09T00:54:04.756Z,3.88
2022-12-09T00:54:14.544Z,3.78
2022-12-09T00:54:24.650Z,3.80
2022-12-09T00:54:35.384Z,3.83
2022-12-09T00:54:44.493Z,3.85
2022-12-09T00:54:54.574Z,3.85
2022-12-09T00:55:04.602Z,3.90
2022-12-09T00:55:14.555Z,3.78
2022-12-09T00:55:24.747Z,3.83
2022-12-09T00:55:35.290Z,3.79
2022-12-09T00:55:44.737Z,3.72
2022-12-09T00:55:54.425Z,3.83
2022-12-09T00:56:04.424Z,3.71
2022-12-09T00:56:14.626Z,3.67
2022-12-09T00:56:24.422Z,3.75
2022-12-09T00:56:34.649Z,3.78
2022-12-09T00:56:44.536Z,3.80
2022-12-09T00:56:54.465Z,3.72
2022-12-09T00:57:05.233Z,3.85
2022-12-09T00:57:14.600Z,3.65
2022-12-09T00:57:24.433Z,3.71
2022-12-09T00:57:34.437Z,3.71
2022-12-09T00:57:44.665Z,3.68
2022-12-09T00:57:54.560Z,3.92
2022-12-09T00:58:04.392Z,3.71
2022-12-09T00:58:14.459Z,3.60
2022-12-09T00:58:24.439Z,3.65
2022-12-09T00:58:34.492Z,3.82
2022-12-09T00:58:44.551Z,3.92
2022-12-09T00:58:54.471Z,3.75
2022-12-09T00:59:04.499Z,3.67
2022-12-09T00:59:14.402Z,3.62
2022-12-09T00:59:24.574Z,3.80
2022-12-09T00:59:34.633Z,3.65
2022-12-09T00:59:44.585Z,3.70
2022-12-09T00:59:54.724Z,3.68
2022-12-09T01:00:05.046Z,3.70
2022-12-09T01:00:14.397Z,3.67
2022-12-09T01:00:24.480Z,3.67
2022-12-09T01:00:34.545Z,3.68
2022-12-09T01:00:44.677Z,3.78
2022-12-09T01:00:54.409Z,3.72
2022-12-09T01:01:04.731Z,3.83
2022-12-09T01:01:15.201Z,3.70
2022-12-09T01:01:24.599Z,3.70
2022-12-09T01:01:35.314Z,3.65
2022-12-09T01:01:44.579Z,3.86
2022-12-09T01:01:54.548Z,3.75
2022-12-09T01:02:04.508Z,3.60
2022-12-09T01:02:14.821Z,3.78
2022-12-09T01:02:24.620Z,3.79
2022-12-09T01:02:34.538Z,3.70
2022-12-09T01:02:44.668Z,3.75
2022-12-09T01:02:54.643Z,3.82
2022-12-09T01:03:04.652Z,3.90
2022-12-09T01:03:14.661Z,3.64
2022-12-09T01:03:24.555Z,3.68
2022-12-09T01:03:34.673Z,3.71
2022-12-09T01:03:44.568Z,3.62
2022-12-09T01:03:54.552Z,3.68
2022-12-09T01:04:05.411Z,3.83
2022-12-09T01:04:14.469Z,3.75
2022-12-09T01:04:24.668Z,3.92
2022-12-09T01:04:34.466Z,3.67
2022-12-09T01:04:44.675Z,3.67
2022-12-09T01:04:54.401Z,3.54
2022-12-09T01:05:04.726Z,3.58
2022-12-09T01:05:14.528Z,3.47
2022-12-09T01:05:25.305Z,3.80
2022-12-09T01:05:34.445Z,3.75
2022-12-09T01:05:44.413Z,3.68
2022-12-09T01:05:54.570Z,3.70
2022-12-09T01:06:05.189Z,3.65
2022-12-09T01:06:15.257Z,3.57
2022-12-09T01:06:24.457Z,3.83
2022-12-09T01:06:34.377Z,3.61
2022-12-09T01:06:44.659Z,3.76
2022-12-09T01:06:54.542Z,3.61
2022-12-09T01:07:04.413Z,3.67
2022-12-09T01:07:14.399Z,3.78
2022-12-09T01:07:24.449Z,3.80
2022-12-09T01:07:34.470Z,3.64
2022-12-09T01:07:44.766Z,3.61
2022-12-09T01:07:54.621Z,3.57
2022-12-09T01:08:04.415Z,3.64
2022-12-09T01:08:14.513Z,3.71
2022-12-09T01:08:24.441Z,3.80
2022-12-09T01:08:38.340Z,3.67
2022-12-09T01:08:45.824Z,3.64
2022-12-09T01:08:54.508Z,3.67
2022-12-09T01:09:04.647Z,3.83
2022-12-09T01:09:14.736Z,3.79
2022-12-09T01:09:24.395Z,3.70
2022-12-09T01:09:34.443Z,3.60
2022-12-09T01:09:44.355Z,3.53
2022-12-09T01:09:55.404Z,3.79
2022-12-09T01:10:05.100Z,3.65
2022-12-09T01:10:14.560Z,3.75
2022-12-09T01:10:24.367Z,3.92
2022-12-09T01:10:34.397Z,3.70
2022-12-09T01:10:44.366Z,3.79
2022-12-09T01:10:54.352Z,3.75
2022-12-09T01:11:04.453Z,3.80
2022-12-09T01:11:14.403Z,3.78
2022-12-09T01:11:25.333Z,3.71
2022-12-09T01:11:34.499Z,3.80
2022-12-09T01:11:44.445Z,3.79
2022-12-09T01:11:54.334Z,3.67
2022-12-09T01:12:04.348Z,3.61
2022-12-09T01:12:14.622Z,3.49
2022-12-09T01:12:24.573Z,3.78
2022-12-09T01:12:34.532Z,3.76
2022-12-09T01:12:44.486Z,3.85
2022-12-09T01:12:54.541Z,3.62
2022-12-09T01:13:04.477Z,3.76
2022-12-09T01:13:14.429Z,3.79
2022-12-09T01:13:24.356Z,3.82
2022-12-09T01:13:34.511Z,3.75
2022-12-09T01:13:44.346Z,3.94
2022-12-09T01:13:54.683Z,3.83
2022-12-09T01:14:04.624Z,3.85
2022-12-09T01:14:14.386Z,3.83
2022-12-09T01:14:24.340Z,3.76
2022-12-09T01:14:34.313Z,3.85
2022-12-09T01:14:44.561Z,3.89
2022-12-09T01:14:54.640Z,3.72
2022-12-09T01:15:04.319Z,3.72
2022-12-09T01:15:15.450Z,3.64
2022-12-09T01:15:24.520Z,3.78
2022-12-09T01:15:34.372Z,3.82
2022-12-09T01:15:44.553Z,3.76
2022-12-09T01:15:54.584Z,3.76
2022-12-09T01:16:04.732Z,3.85
2022-12-09T01:16:14.539Z,3.75
2022-12-09T01:16:24.665Z,3.70
2022-12-09T01:16:35.411Z,3.70
2022-12-09T01:16:44.413Z,3.97
2022-12-09T01:16:54.393Z,3.79
2022-12-09T01:17:04.674Z,3.79
2022-12-09T01:17:14.446Z,3.97
2022-12-09T01:17:25.160Z,3.86
2022-12-09T01:17:34.499Z,3.72
2022-12-09T01:17:44.664Z,3.70
2022-12-09T01:17:55.323Z,3.82
2022-12-09T01:18:04.585Z,3.88
2022-12-09T01:18:14.319Z,3.70
2022-12-09T01:18:24.502Z,3.92
2022-12-09T01:18:34.557Z,4.10
2022-12-09T01:18:44.572Z,3.78
2022-12-09T01:18:54.624Z,4.06
2022-12-09T01:19:04.335Z,4.08
2022-12-09T01:19:14.291Z,3.94
2022-12-09T01:19:25.349Z,3.89
2022-12-09T01:19:34.460Z,3.90
2022-12-09T01:19:44.332Z,3.85
2022-12-09T01:19:55.186Z,3.83
2022-12-09T01:20:04.922Z,3.90
2022-12-09T01:20:14.296Z,3.89
2022-12-09T01:20:24.336Z,3.86
2022-12-09T01:20:34.335Z,3.90
2022-12-09T01:20:44.331Z,3.88
2022-12-09T01:20:54.440Z,3.76
2022-12-09T01:21:04.349Z,3.89
2022-12-09T01:21:14.560Z,3.96
2022-12-09T01:21:24.439Z,3.94
2022-12-09T01:21:34.420Z,3.90
2022-12-09T01:21:44.452Z,3.75
2022-12-09T01:21:54.292Z,3.89
2022-12-09T01:22:04.632Z,3.79
2022-12-09T01:22:15.458Z,3.75
2022-12-09T01:22:24.376Z,4.01
2022-12-09T01:22:34.352Z,4.01
2022-12-09T01:22:44.618Z,3.98
2022-12-09T01:22:54.374Z,3.86
2022-12-09T01:23:04.537Z,3.78
2022-12-09T01:23:14.375Z,3.80
2022-12-09T01:23:24.303Z,3.79
2022-12-09T01:23:34.622Z,3.94
2022-12-09T01:23:44.426Z,3.96
2022-12-09T01:23:54.286Z,3.85
2022-12-09T01:24:04.344Z,3.92
2022-12-09T01:24:14.305Z,3.89
2022-12-09T01:24:24.504Z,3.90
2022-12-09T01:24:34.286Z,3.76
2022-12-09T01:24:44.327Z,3.83
2022-12-09T01:24:54.606Z,3.82
2022-12-09T01:25:04.658Z,4.01
2022-12-09T01:25:14.648Z,3.92
2022-12-09T01:25:24.413Z,3.92
2022-12-09T01:25:34.276Z,3.85
2022-12-09T01:25:44.266Z,3.92
2022-12-09T01:25:54.597Z,3.90
2022-12-09T01:26:04.480Z,3.85
2022-12-09T01:26:14.263Z,3.86
2022-12-09T01:26:25.343Z,4.03
2022-12-09T01:26:34.416Z,3.80
2022-12-09T01:26:44.374Z,3.85
2022-12-09T01:26:54.264Z,3.96
2022-12-09T01:27:04.506Z,3.90
2022-12-09T01:27:14.408Z,3.80
2022-12-09T01:27:24.329Z,3.75
2022-12-09T01:27:34.434Z,3.72
2022-12-09T01:27:44.410Z,3.92
2022-12-09T01:27:54.409Z,3.89
2022-12-09T01:28:04.298Z,3.96
2022-12-09T01:28:14.273Z,3.98
2022-12-09T01:28:24.285Z,3.80
2022-12-09T01:28:34.312Z,3.72
2022-12-09T01:28:44.287Z,3.80
2022-12-09T01:28:54.303Z,3.89
2022-12-09T01:29:05.220Z,3.94
2022-12-09T01:29:14.353Z,3.88
2022-12-09T01:29:24.277Z,3.70
2022-12-09T01:29:34.508Z,3.76
2022-12-09T01:29:44.361Z,3.79
2022-12-09T01:29:54.248Z,3.82
2022-12-09T01:30:04.398Z,3.76
2022-12-09T01:30:14.570Z,3.96
2022-12-09T01:30:24.271Z,3.75
2022-12-09T01:30:34.365Z,3.97
2022-12-09T01:30:44.776Z,3.94
2022-12-09T01:30:54.353Z,3.97
2022-12-09T01:31:05.349Z,4.08
2022-12-09T01:31:14.646Z,3.72
2022-12-09T01:31:24.429Z,4.03
2022-12-09T01:31:34.353Z,3.79
2022-12-09T01:31:44.455Z,3.88
2022-12-09T01:31:54.330Z,3.94
2022-12-09T01:32:04.460Z,3.82
2022-12-09T01:32:14.489Z,3.90
2022-12-09T01:32:24.354Z,3.72
2022-12-09T01:32:34.310Z,3.72
2022-12-09T01:32:44.298Z,3.89
2022-12-09T01:32:55.544Z,3.72
2022-12-09T01:33:04.549Z,3.70
2022-12-09T01:33:14.444Z,3.85
2022-12-09T01:33:24.368Z,3.85
2022-12-09T01:33:34.268Z,3.92
2022-12-09T01:33:44.251Z,3.75
2022-12-09T01:33:54.258Z,3.80
2022-12-09T01:34:04.516Z,3.71
2022-12-09T01:34:15.205Z,3.88
2022-12-09T01:34:24.554Z,3.72
2022-12-09T01:34:34.424Z,3.88
2022-12-09T01:34:45.583Z,3.72
2022-12-09T01:34:54.345Z,4.00
2022-12-09T01:35:04.517Z,3.78
2022-12-09T01:35:14.229Z,3.82
2022-12-09T01:35:25.574Z,3.85
2022-12-09T01:35:34.221Z,3.82
2022-12-09T01:35:44.225Z,3.71
2022-12-09T01:35:54.225Z,3.85
2022-12-09T01:36:04.275Z,3.96
2022-12-09T01:36:15.670Z,3.96
2022-12-09T01:36:24.552Z,3.85
2022-12-09T01:36:34.421Z,3.88
2022-12-09T01:36:44.239Z,3.85
2022-12-09T01:36:54.428Z,3.94
2022-12-09T01:37:04.285Z,3.75
2022-12-09T01:37:14.251Z,3.79
2022-12-09T01:37:24.366Z,3.85
2022-12-09T01:37:34.244Z,3.82
2022-12-09T01:37:44.458Z,3.61
2022-12-09T01:37:54.311Z,3.72
2022-12-09T01:38:04.522Z,3.78
2022-12-09T01:38:14.207Z,3.78
2022-12-09T01:38:24.267Z,3.86
2022-12-09T01:38:34.291Z,3.85
2022-12-09T01:38:44.308Z,3.86
2022-12-09T01:38:54.247Z,3.82
2022-12-09T01:39:04.305Z,3.76
2022-12-09T01:39:14.302Z,3.85
2022-12-09T01:39:24.439Z,3.83
2022-12-09T01:39:34.429Z,3.75
2022-12-09T01:39:44.479Z,3.72
2022-12-09T01:39:54.377Z,3.71
2022-12-09T01:40:04.626Z,3.68
2022-12-09T01:40:14.229Z,3.85
2022-12-09T01:40:25.295Z,3.67
2022-12-09T01:40:34.235Z,3.79
2022-12-09T01:40:44.277Z,3.76
2022-12-09T01:40:54.653Z,3.88
2022-12-09T01:41:04.192Z,3.71
2022-12-09T01:41:14.336Z,3.89
2022-12-09T01:41:24.234Z,3.79
2022-12-09T01:41:34.460Z,3.72
2022-12-09T01:41:44.276Z,3.82
2022-12-09T01:41:54.300Z,3.82
2022-12-09T01:42:04.193Z,3.90
2022-12-09T01:42:14.336Z,3.71
2022-12-09T01:42:24.623Z,3.72
2022-12-09T01:42:34.448Z,3.86
2022-12-09T01:42:44.251Z,3.75
2022-12-09T01:42:55.417Z,3.70
2022-12-09T01:43:04.202Z,3.58
2022-12-09T01:43:14.890Z,3.71
2022-12-09T01:43:24.383Z,3.72
2022-12-09T01:43:34.491Z,3.79
2022-12-09T01:43:44.259Z,3.88
2022-12-09T01:43:54.226Z,3.72
2022-12-09T01:44:04.494Z,3.89
2022-12-09T01:44:15.510Z,3.86
2022-12-09T01:44:24.350Z,3.68
2022-12-09T01:44:35.215Z,3.72
2022-12-09T01:44:44.498Z,3.68
2022-12-09T01:44:54.286Z,3.76
2022-12-09T01:45:04.314Z,3.68
2022-12-09T01:45:14.203Z,3.79
2022-12-09T01:45:24.314Z,3.76
2022-12-09T01:45:34.203Z,3.72
2022-12-09T01:45:44.255Z,3.62
2022-12-09T01:45:54.301Z,3.60
2022-12-09T01:46:04.414Z,3.96
2022-12-09T01:46:14.276Z,3.79
2022-12-09T01:46:24.512Z,3.75
2022-12-09T01:46:34.269Z,3.68
2022-12-09T01:46:44.455Z,3.72
2022-12-09T01:46:54.201Z,3.72
2022-12-09T01:47:04.618Z,3.76
2022-12-09T01:47:14.445Z,3.67
2022-12-09T01:47:25.014Z,3.70
2022-12-09T01:47:34.938Z,3.67
2022-12-09T01:47:44.493Z,3.79
2022-12-09T01:47:54.291Z,3.54
2022-12-09T01:48:04.498Z,3.75
2022-12-09T01:48:14.546Z,3.57
2022-12-09T01:48:24.394Z,3.62
2022-12-09T01:48:34.360Z,3.72
2022-12-09T01:48:44.212Z,3.70
2022-12-09T01:48:54.397Z,3.68
2022-12-09T01:49:04.418Z,3.72
2022-12-09T01:49:14.384Z,3.57
2022-12-09T01:49:24.473Z,3.67
2022-12-09T01:49:34.174Z,3.71
2022-12-09T01:49:44.240Z,3.50
2022-12-09T01:49:54.369Z,3.60
2022-12-09T01:50:04.625Z,3.53
2022-12-09T01:50:14.890Z,3.53
2022-12-09T01:50:24.189Z,3.34
2022-12-09T01:50:34.398Z,3.30
2022-12-09T01:50:44.179Z,3.52
2022-12-09T01:50:54.431Z,3.57
2022-12-09T01:51:04.242Z,3.64
2022-12-09T01:51:14.703Z,3.70
2022-12-09T01:51:24.179Z,3.42
2022-12-09T01:51:34.692Z,3.50
2022-12-09T01:51:44.703Z,3.54
2022-12-09T01:51:54.144Z,3.60
2022-12-09T01:52:04.153Z,3.43
2022-12-09T01:52:14.194Z,3.46
2022-12-09T01:52:24.325Z,3.52
2022-12-09T01:52:34.364Z,3.53
2022-12-09T01:52:44.305Z,3.47
2022-12-09T01:52:54.244Z,3.47
2022-12-09T01:53:04.403Z,3.68
2022-12-09T01:53:14.148Z,3.60
2022-12-09T01:53:24.139Z,3.43
2022-12-09T01:53:34.552Z,3.39
2022-12-09T01:53:44.162Z,3.39
2022-12-09T01:53:54.143Z,3.60
2022-12-09T01:54:04.153Z,3.49
2022-12-09T01:54:14.142Z,3.60
2022-12-09T01:54:24.768Z,3.47
2022-12-09T01:54:34.158Z,3.57
2022-12-09T01:54:44.267Z,3.49
2022-12-09T01:54:54.217Z,3.34
2022-12-09T01:55:04.140Z,3.40
2022-12-09T01:55:14.158Z,3.49
2022-12-09T01:55:24.140Z,3.62
2022-12-09T01:55:34.149Z,3.40
2022-12-09T01:55:44.474Z,3.58
2022-12-09T01:55:54.131Z,3.42
2022-12-09T01:56:04.343Z,3.57
2022-12-09T01:56:14.136Z,3.33
2022-12-09T01:56:24.255Z,3.44
2022-12-09T01:56:34.173Z,3.57
2022-12-09T01:56:44.129Z,3.21
2022-12-09T01:56:54.181Z,3.44
2022-12-09T01:57:04.203Z,3.47
2022-12-09T01:57:14.229Z,3.27
2022-12-09T01:57:24.526Z,3.43
2022-12-09T01:57:34.124Z,3.47
2022-12-09T01:57:44.362Z,3.57
2022-12-09T01:57:54.149Z,3.49
2022-12-09T01:58:04.339Z,3.53
2022-12-09T01:58:14.159Z,3.24
2022-12-09T01:58:24.146Z,3.47
2022-12-09T01:58:34.681Z,3.47
2022-12-09T01:58:44.260Z,3.31
2022-12-09T01:58:54.367Z,3.46
2022-12-09T01:59:04.202Z,3.57
2022-12-09T01:59:14.151Z,3.49
2022-12-09T01:59:24.128Z,3.31
2022-12-09T01:59:34.147Z,3.28
2022-12-09T01:59:44.237Z,3.44
2022-12-09T01:59:54.434Z,3.30
2022-12-09T02:00:05.013Z,3.36
2022-12-09T02:00:14.488Z,3.52
2022-12-09T02:00:24.154Z,3.42
2022-12-09T02:00:34.180Z,3.43
2022-12-09T02:00:44.122Z,3.36
2022-12-09T02:00:54.446Z,3.30
2022-12-09T02:01:04.184Z,3.34
2022-12-09T02:01:14.423Z,3.44
2022-12-09T02:01:24.825Z,3.42
2022-12-09T02:01:34.354Z,3.33
2022-12-09T02:01:44.349Z,3.46
2022-12-09T02:01:54.200Z,3.49
2022-12-09T02:02:04.149Z,3.34
2022-12-09T02:02:14.452Z,3.21
2022-12-09T02:02:24.274Z,3.34
2022-12-09T02:02:34.263Z,3.36
2022-12-09T02:02:44.845Z,3.57
2022-12-09T02:02:54.723Z,3.50
2022-12-09T02:03:04.202Z,3.34
2022-12-09T02:03:14.435Z,3.28
2022-12-09T02:03:24.333Z,3.33
2022-12-09T02:03:34.405Z,3.49
2022-12-09T02:03:44.257Z,3.27
2022-12-09T02:03:54.628Z,3.40
2022-12-09T02:04:04.267Z,3.31
2022-12-09T02:04:14.439Z,3.33
2022-12-09T02:04:24.522Z,3.40
2022-12-09T02:04:34.316Z,3.36
2022-12-09T02:04:44.423Z,3.62
2022-12-09T02:04:54.212Z,3.40
2022-12-09T02:05:04.278Z,3.33
2022-12-09T02:05:14.163Z,3.34
2022-12-09T02:05:24.431Z,3.24
2022-12-09T02:05:34.862Z,3.28
2022-12-09T02:05:44.091Z,3.33
2022-12-09T02:05:54.187Z,3.33
2022-12-09T02:06:04.501Z,3.30
2022-12-09T02:06:14.087Z,3.44
2022-12-09T02:06:24.443Z,3.44
2022-12-09T02:06:34.123Z,3.24
2022-12-09T02:06:44.122Z,3.40
2022-12-09T02:06:54.220Z,3.33
2022-12-09T02:07:04.103Z,3.36
2022-12-09T02:07:14.090Z,3.39
2022-12-09T02:07:24.721Z,3.25
2022-12-09T02:07:34.412Z,3.34
2022-12-09T02:07:44.441Z,3.33
2022-12-09T02:07:54.409Z,3.34
2022-12-09T02:08:04.228Z,3.58
2022-12-09T02:08:14.138Z,3.43
2022-12-09T02:08:24.264Z,3.44
2022-12-09T02:08:34.202Z,3.40
2022-12-09T02:08:44.218Z,3.36
2022-12-09T02:08:54.280Z,3.25
2022-12-09T02:09:04.361Z,3.54
2022-12-09T02:09:14.564Z,3.47
2022-12-09T02:09:24.185Z,3.30
2022-12-09T02:09:34.093Z,3.57
2022-12-09T02:09:44.432Z,3.21
2022-12-09T02:09:54.185Z,3.27
2022-12-09T02:10:04.335Z,3.33
2022-12-09T02:10:14.388Z,3.49
2022-12-09T02:10:24.300Z,3.27
2022-12-09T02:10:34.078Z,3.27
2022-12-09T02:10:44.145Z,3.20
2022-12-09T02:10:54.126Z,3.61
2022-12-09T02:11:04.299Z,3.24
2022-12-09T02:11:14.284Z,3.31
2022-12-09T02:11:24.276Z,3.42
2022-12-09T02:11:34.072Z,3.34
2022-12-09T02:11:44.161Z,3.25
2022-12-09T02:11:54.146Z,3.36
2022-12-09T02:12:04.077Z,3.40
2022-12-09T02:12:14.134Z,3.44
2022-12-09T02:12:24.102Z,3.31
2022-12-09T02:12:34.755Z,3.49
2022-12-09T02:12:44.081Z,3.31
2022-12-09T02:12:54.521Z,3.36
2022-12-09T02:13:04.119Z,3.36